createdAt,value
2018-07-23T00:02:11.347Z,7.63
2018-07-23T00:04:40.007Z,8.07
2018-07-23T00:07:08.619Z,7.20
2018-07-23T00:09:37.201Z,6.73
2018-07-23T00:12:12.269Z,8.57
2018-07-23T00:14:40.977Z,8.00
2018-07-23T00:17:09.760Z,9.47
2018-07-23T00:19:38.436Z,9.13
2018-07-23T00:22:07.571Z,8.47
2018-07-23T00:24:36.526Z,8.47
2018-07-23T00:27:05.122Z,9.73
2018-07-23T00:29:33.431Z,9.03
2018-07-23T00:32:02.074Z,9.60
2018-07-23T00:34:30.907Z,10.57
2018-07-23T00:36:59.547Z,10.47
2018-07-23T00:39:28.299Z,12.70
2018-07-23T00:41:56.934Z,12.13
2018-07-23T00:44:25.691Z,11.07
2018-07-23T00:46:54.404Z,11.10
2018-07-23T00:49:23.081Z,11.50
2018-07-23T00:51:51.842Z,10.70
2018-07-23T00:54:20.392Z,11.00
2018-07-23T00:56:50.235Z,11.27
2018-07-23T00:59:18.817Z,10.97
2018-07-23T01:01:47.466Z,12.63
2018-07-23T01:04:16.054Z,11.40
2018-07-23T01:06:44.664Z,12.73
2018-07-23T01:09:13.244Z,10.97
2018-07-23T01:11:41.961Z,11.90
2018-07-23T01:14:10.537Z,12.07
2018-07-23T01:16:39.158Z,12.53
2018-07-23T01:19:07.847Z,12.30
2018-07-23T01:21:36.648Z,11.20
2018-07-23T01:24:05.239Z,10.13
2018-07-23T01:26:33.934Z,12.20
2018-07-23T01:29:02.560Z,12.17
2018-07-23T01:31:31.187Z,12.97
2018-07-23T01:33:59.819Z,14.10
2018-07-23T01:36:28.407Z,15.23
2018-07-23T01:38:57.070Z,13.30
2018-07-23T01:41:25.695Z,14.10
2018-07-23T01:43:54.301Z,14.23
2018-07-23T01:46:23.006Z,14.20
2018-07-23T01:48:51.712Z,15.90
2018-07-23T01:51:20.312Z,16.00
2018-07-23T01:53:48.863Z,14.10
2018-07-23T01:56:17.543Z,16.63
2018-07-23T01:58:46.216Z,15.03
2018-07-23T02:01:14.890Z,14.70
2018-07-23T02:03:43.525Z,15.20
2018-07-23T02:06:12.280Z,15.03
2018-07-23T02:08:40.936Z,16.40
2018-07-23T02:11:09.584Z,16.57
2018-07-23T02:13:38.168Z,14.63
2018-07-23T02:16:06.743Z,15.20
2018-07-23T02:18:35.363Z,16.33
2018-07-23T02:21:03.954Z,15.20
2018-07-23T02:23:32.552Z,15.57
2018-07-23T02:26:01.182Z,15.47
2018-07-23T02:28:29.819Z,15.27
2018-07-23T02:30:58.476Z,14.73
2018-07-23T02:33:27.052Z,14.33
2018-07-23T02:35:55.726Z,13.70
2018-07-23T02:38:24.303Z,16.67
2018-07-23T02:40:52.964Z,16.10
2018-07-23T02:43:21.561Z,15.37
2018-07-23T02:45:50.198Z,14.97
2018-07-23T02:48:18.864Z,15.87
2018-07-23T02:50:47.540Z,17.00
2018-07-23T02:53:16.203Z,17.17
2018-07-23T02:55:44.811Z,15.77
2018-07-23T02:58:13.518Z,17.77
2018-07-23T03:00:42.182Z,18.50
2018-07-23T03:03:11.057Z,18.90
2018-07-23T03:05:39.772Z,20.70
2018-07-23T03:08:08.408Z,21.50
2018-07-23T03:10:36.966Z,22.87
2018-07-23T03:13:06.051Z,20.67
2018-07-23T03:15:34.675Z,22.50
2018-07-23T03:18:03.453Z,18.33
2018-07-23T03:20:32.325Z,21.33
2018-07-23T03:23:00.981Z,20.60
2018-07-23T03:25:29.920Z,20.00
2018-07-23T03:27:58.814Z,21.60
2018-07-23T03:30:27.747Z,18.10
2018-07-23T03:32:56.342Z,21.60
2018-07-23T03:35:24.896Z,21.23
2018-07-23T03:37:53.633Z,18.53
2018-07-23T03:40:22.392Z,18.67
2018-07-23T03:42:51.064Z,17.10
2018-07-23T03:45:19.780Z,20.10
2018-07-23T03:47:48.415Z,19.20
2018-07-23T03:50:17.051Z,19.37
2018-07-23T03:52:45.806Z,18.40
2018-07-23T03:55:14.441Z,17.27
2018-07-23T03:57:43.131Z,18.50
2018-07-23T04:00:11.852Z,16.47
2018-07-23T04:02:40.568Z,17.07
2018-07-23T04:05:09.262Z,18.10
2018-07-23T04:07:37.976Z,18.93
2018-07-23T04:10:06.834Z,18.33
2018-07-23T04:12:35.449Z,17.50
2018-07-23T04:15:04.134Z,18.23
2018-07-23T04:17:32.793Z,17.40
2018-07-23T04:20:01.354Z,16.13
2018-07-23T04:22:30.169Z,18.90
2018-07-23T04:24:58.786Z,17.20
2018-07-23T04:27:27.068Z,19.80
2018-07-23T04:29:55.682Z,17.47
2018-07-23T04:32:24.292Z,18.10
2018-07-23T04:34:53.427Z,18.43
2018-07-23T04:37:22.042Z,20.63
2018-07-23T04:39:50.680Z,17.23
2018-07-23T04:42:19.414Z,17.50
2018-07-23T04:44:48.044Z,20.50
2018-07-23T04:47:16.691Z,18.80
2018-07-23T04:49:45.363Z,18.57
2018-07-23T04:52:14.035Z,19.00
2018-07-23T04:54:42.652Z,17.77
2018-07-23T04:57:11.486Z,18.10
2018-07-23T04:59:40.131Z,21.60
2018-07-23T05:02:09.144Z,21.17
2018-07-23T05:04:37.880Z,20.10
2018-07-23T05:07:06.426Z,20.73
2018-07-23T05:09:41.770Z,19.63
2018-07-23T05:12:10.393Z,20.03
2018-07-23T05:14:38.992Z,21.00
2018-07-23T05:17:07.591Z,20.33
2018-07-23T05:19:36.184Z,20.20
2018-07-23T05:22:04.818Z,20.00
2018-07-23T05:24:33.552Z,20.57
2018-07-23T05:27:02.235Z,21.10
2018-07-23T05:29:30.845Z,20.53
2018-07-23T05:31:59.545Z,20.10
2018-07-23T05:34:28.144Z,21.07
2018-07-23T05:36:56.859Z,20.27
2018-07-23T05:39:25.546Z,18.23
2018-07-23T05:41:54.052Z,19.63
2018-07-23T05:44:22.857Z,15.80
2018-07-23T05:46:51.473Z,17.13
2018-07-23T05:49:20.229Z,15.73
2018-07-23T05:51:48.878Z,18.03
2018-07-23T05:54:17.459Z,17.47
2018-07-23T05:56:46.453Z,17.97
2018-07-23T05:59:15.109Z,18.70
2018-07-23T06:01:43.786Z,18.97
2018-07-23T06:04:12.420Z,18.70
2018-07-23T06:06:41.003Z,18.67
2018-07-23T06:09:10.582Z,19.20
2018-07-23T06:11:39.180Z,18.27
2018-07-23T06:14:07.941Z,16.37
2018-07-23T06:16:36.558Z,16.77
2018-07-23T06:19:05.131Z,15.40
2018-07-23T06:21:33.916Z,14.10
2018-07-23T06:24:02.564Z,13.60
2018-07-23T06:26:31.213Z,12.87
2018-07-23T06:28:59.729Z,12.50
2018-07-23T06:31:28.301Z,12.03
2018-07-23T06:33:56.894Z,10.83
2018-07-23T06:36:25.709Z,9.83
2018-07-23T06:38:54.476Z,8.73
2018-07-23T06:41:23.031Z,8.65
2018-07-23T06:43:51.794Z,9.50
2018-07-23T06:46:20.714Z,9.63
2018-07-23T06:48:49.418Z,11.20
2018-07-23T06:51:18.194Z,11.90
2018-07-23T06:53:46.964Z,13.20
2018-07-23T06:56:15.666Z,13.90
2018-07-23T06:58:44.300Z,16.67
2018-07-23T07:01:12.920Z,14.27
2018-07-23T07:03:41.607Z,13.90
2018-07-23T07:06:10.265Z,14.37
2018-07-23T07:08:39.267Z,15.10
2018-07-23T07:11:07.877Z,14.17
2018-07-23T07:13:36.481Z,15.40
2018-07-23T07:16:05.068Z,14.50
2018-07-23T07:18:33.589Z,15.27
2018-07-23T07:21:02.179Z,13.20
2018-07-23T07:23:30.662Z,13.67
2018-07-23T07:25:59.389Z,16.10
2018-07-23T07:28:28.085Z,16.07
2018-07-23T07:30:56.750Z,13.70
2018-07-23T07:33:25.498Z,14.97
2018-07-23T07:35:54.150Z,14.50
2018-07-23T07:38:23.272Z,14.33
2018-07-23T07:40:51.963Z,14.23
2018-07-23T07:43:20.957Z,13.40
2018-07-23T07:45:49.759Z,12.80
2018-07-23T07:48:18.408Z,13.13
2018-07-23T07:50:47.243Z,12.67
2018-07-23T07:53:16.100Z,13.50
2018-07-23T07:55:44.878Z,12.97
2018-07-23T07:58:13.498Z,14.87
2018-07-23T08:00:42.106Z,14.03
2018-07-23T08:03:10.802Z,13.27
2018-07-23T08:05:39.597Z,12.73
2018-07-23T08:08:08.313Z,11.80
2018-07-23T08:10:37.102Z,13.57
2018-07-23T08:13:05.844Z,11.50
2018-07-23T08:15:34.563Z,12.93
2018-07-23T08:18:03.436Z,12.03
2018-07-23T08:20:32.480Z,11.30
2018-07-23T08:23:01.625Z,11.30
2018-07-23T08:25:30.402Z,10.23
2018-07-23T08:27:59.101Z,11.27
2018-07-23T08:30:27.870Z,10.17
2018-07-23T08:32:56.417Z,9.27
2018-07-23T08:35:25.129Z,9.30
2018-07-23T08:37:53.755Z,7.93
2018-07-23T08:40:22.093Z,8.70
2018-07-23T08:42:50.784Z,7.20
2018-07-23T08:45:19.485Z,6.57
2018-07-23T08:47:48.300Z,8.23
2018-07-23T08:50:17.876Z,7.40
2018-07-23T08:52:46.417Z,7.15
2018-07-23T08:55:15.012Z,6.15
2018-07-23T08:57:43.662Z,5.83
2018-07-23T09:00:12.357Z,6.00
2018-07-23T09:02:40.993Z,4.35
2018-07-23T09:05:09.691Z,3.35
2018-07-23T09:07:38.464Z,4.67
2018-07-23T09:10:07.714Z,4.37
2018-07-23T09:12:36.500Z,5.33
2018-07-23T09:15:05.792Z,5.67
2018-07-23T09:17:34.728Z,5.00
2018-07-23T09:20:04.781Z,5.28
2018-07-23T09:22:34.650Z,5.37
2018-07-23T09:25:03.472Z,5.20
2018-07-23T09:27:33.147Z,4.50
2018-07-23T09:30:02.372Z,4.92
2018-07-23T09:32:30.995Z,3.55
2018-07-23T09:35:00.541Z,3.70
2018-07-23T09:37:29.651Z,4.10
2018-07-23T09:39:58.513Z,3.50
2018-07-23T09:42:27.039Z,4.30
2018-07-23T09:44:55.696Z,5.40
2018-07-23T09:47:26.348Z,6.15
2018-07-23T09:49:55.007Z,6.50
2018-07-23T09:52:23.682Z,6.65
2018-07-23T09:54:52.380Z,8.50
2018-07-23T09:57:20.993Z,8.20
2018-07-23T09:59:49.629Z,6.57
2018-07-23T10:02:17.834Z,7.70
2018-07-23T10:04:46.480Z,7.70
2018-07-23T10:07:15.697Z,8.40
2018-07-23T10:09:44.399Z,9.83
2018-07-23T10:12:13.286Z,9.77
2018-07-23T10:14:41.995Z,9.00
2018-07-23T10:17:10.657Z,8.50
2018-07-23T10:19:39.325Z,8.07
2018-07-23T10:22:09.103Z,10.27
2018-07-23T10:24:37.796Z,7.50
2018-07-23T10:27:06.729Z,8.70
2018-07-23T10:29:35.368Z,7.73
2018-07-23T10:32:04.178Z,9.00
2018-07-23T10:34:32.784Z,9.07
2018-07-23T10:37:01.862Z,8.33
2018-07-23T10:39:30.616Z,8.90
2018-07-23T10:41:59.345Z,8.90
2018-07-23T10:44:28.007Z,8.20
2018-07-23T10:46:56.582Z,8.70
2018-07-23T10:49:25.338Z,8.50
2018-07-23T10:51:54.342Z,7.70
2018-07-23T10:54:23.268Z,7.53
2018-07-23T10:56:52.022Z,8.40
2018-07-23T10:59:20.760Z,10.40
2018-07-23T11:01:49.400Z,8.50
2018-07-23T11:04:18.239Z,6.90
2018-07-23T11:06:46.779Z,8.03
2018-07-23T11:09:16.222Z,6.57
2018-07-23T11:11:44.770Z,7.23
2018-07-23T11:14:13.361Z,7.90
2018-07-23T11:16:42.009Z,8.37
2018-07-23T11:19:10.582Z,8.80
2018-07-23T11:21:39.055Z,7.17
2018-07-23T11:24:07.655Z,7.20
2018-07-23T11:26:36.346Z,7.37
2018-07-23T11:29:04.860Z,5.60
2018-07-23T11:31:33.313Z,6.00
2018-07-23T11:34:01.848Z,9.30
2018-07-23T11:36:30.516Z,8.57
2018-07-23T11:38:59.136Z,7.13
2018-07-23T11:41:27.858Z,8.57
2018-07-23T11:43:56.459Z,8.07
2018-07-23T11:46:25.314Z,6.93
2018-07-23T11:48:53.744Z,7.03
2018-07-23T11:51:22.390Z,8.47
2018-07-23T11:53:51.730Z,7.50
2018-07-23T11:56:21.140Z,6.40
2018-07-23T11:58:51.792Z,6.60
2018-07-23T12:01:20.528Z,6.87
2018-07-23T12:03:49.084Z,6.43
2018-07-23T12:06:17.740Z,5.60
2018-07-23T12:08:46.443Z,5.00
2018-07-23T12:11:14.926Z,5.13
2018-07-23T12:13:43.507Z,5.97
2018-07-23T12:16:12.017Z,6.07
2018-07-23T12:18:40.704Z,5.50
2018-07-23T12:21:09.453Z,5.67
2018-07-23T12:23:38.068Z,5.60
2018-07-23T12:26:07.277Z,6.70
2018-07-23T12:28:35.866Z,6.53
2018-07-23T12:31:04.343Z,6.23
2018-07-23T12:33:32.911Z,6.20
2018-07-23T12:36:01.447Z,7.30
2018-07-23T12:38:30.024Z,5.77
2018-07-23T12:40:58.579Z,7.13
2018-07-23T12:43:27.112Z,6.80
2018-07-23T12:45:56.477Z,7.03
2018-07-23T12:48:25.096Z,7.23
2018-07-23T12:50:53.681Z,6.43
2018-07-23T12:53:22.290Z,6.77
2018-07-23T12:55:50.795Z,6.50
2018-07-23T12:58:19.279Z,6.20
2018-07-23T13:00:47.869Z,6.07
2018-07-23T13:03:16.411Z,6.43
2018-07-23T13:05:44.699Z,6.87
2018-07-23T13:08:13.331Z,7.40
2018-07-23T13:10:41.992Z,6.07
2018-07-23T13:13:10.201Z,7.87
2018-07-23T13:15:38.816Z,7.80
2018-07-23T13:18:07.633Z,6.87
2018-07-23T13:20:36.289Z,6.40
2018-07-23T13:23:04.968Z,6.33
2018-07-23T13:25:33.608Z,6.00
2018-07-23T13:28:02.366Z,6.20
2018-07-23T13:30:31.018Z,6.27
2018-07-23T13:32:59.544Z,6.50
2018-07-23T13:35:28.097Z,6.47
2018-07-23T13:37:56.872Z,5.30
2018-07-23T13:40:25.550Z,6.43
2018-07-23T13:42:54.040Z,5.73
2018-07-23T13:45:22.875Z,6.50
2018-07-23T13:47:51.727Z,6.43
2018-07-23T13:50:21.356Z,6.37
2018-07-23T13:52:49.930Z,5.30
2018-07-23T13:55:18.381Z,5.53
2018-07-23T13:57:48.462Z,5.20
2018-07-23T14:00:17.063Z,6.00
2018-07-23T14:02:45.561Z,6.47
2018-07-23T14:05:14.150Z,6.30
2018-07-23T14:07:43.005Z,5.83
2018-07-23T14:10:11.593Z,4.97
2018-07-23T14:12:40.197Z,5.37
2018-07-23T14:15:09.499Z,5.90
2018-07-23T14:17:37.716Z,5.90
2018-07-23T14:20:06.452Z,5.50
2018-07-23T14:22:35.369Z,5.30
2018-07-23T14:25:03.877Z,5.23
2018-07-23T14:27:32.229Z,4.93
2018-07-23T14:30:01.979Z,5.30
2018-07-23T14:32:32.198Z,5.60
2018-07-23T14:35:00.820Z,5.60
2018-07-23T14:37:30.348Z,5.90
2018-07-23T14:39:59.012Z,5.57
2018-07-23T14:42:28.044Z,6.07
2018-07-23T14:44:56.767Z,6.40
2018-07-23T14:47:25.272Z,6.53
2018-07-23T14:52:29.701Z,5.93
2018-07-23T14:55:00.204Z,5.87
2018-07-23T14:57:28.896Z,6.27
2018-07-23T14:59:57.588Z,6.80
2018-07-23T15:02:26.348Z,6.03
2018-07-23T15:04:54.559Z,6.07
2018-07-23T15:07:23.179Z,6.27
2018-07-23T15:09:51.839Z,6.43
2018-07-23T15:12:20.420Z,6.50
2018-07-23T15:14:49.026Z,5.73
2018-07-23T15:17:17.261Z,5.93
2018-07-23T15:19:45.858Z,6.40
2018-07-23T15:22:14.414Z,5.97
2018-07-23T15:24:43.028Z,5.00
2018-07-23T15:27:11.643Z,5.00
2018-07-23T15:29:40.353Z,6.43
2018-07-23T15:32:08.979Z,6.03
2018-07-23T15:34:37.614Z,6.23
2018-07-23T15:37:06.252Z,5.80
2018-07-23T15:39:34.964Z,6.17
2018-07-23T15:42:03.840Z,4.87
2018-07-23T15:44:32.791Z,5.80
2018-07-23T15:47:01.262Z,6.00
2018-07-23T15:49:29.987Z,5.17
2018-07-23T15:51:58.439Z,6.07
2018-07-23T15:54:26.915Z,5.40
2018-07-23T15:56:55.425Z,5.60
2018-07-23T15:59:24.057Z,5.40
2018-07-23T16:01:52.884Z,5.60
2018-07-23T16:04:21.439Z,5.90
2018-07-23T16:06:50.000Z,5.77
2018-07-23T16:09:18.911Z,6.43
2018-07-23T16:11:47.649Z,5.73
2018-07-23T16:14:16.422Z,6.20
2018-07-23T16:16:45.439Z,6.33
2018-07-23T16:19:14.234Z,6.53
2018-07-23T16:21:43.121Z,5.97
2018-07-23T16:24:11.733Z,7.20
2018-07-23T16:26:40.564Z,6.47
2018-07-23T16:29:09.280Z,7.00
2018-07-23T16:31:37.821Z,5.83
2018-07-23T16:34:06.447Z,5.57
2018-07-23T16:36:34.948Z,6.00
2018-07-23T16:39:04.538Z,6.53
2018-07-23T16:41:33.240Z,6.90
2018-07-23T16:44:01.930Z,6.13
2018-07-23T16:46:30.474Z,5.37
2018-07-23T16:48:58.880Z,5.90
2018-07-23T16:51:27.485Z,5.73
2018-07-23T16:53:56.329Z,6.30
2018-07-23T16:56:25.227Z,5.63
2018-07-23T16:58:53.777Z,5.90
2018-07-23T17:01:22.745Z,6.70
2018-07-23T17:03:51.355Z,6.13
2018-07-23T17:06:20.053Z,6.20
2018-07-23T17:08:48.658Z,5.70
2018-07-23T17:11:17.020Z,6.30
2018-07-23T17:13:45.564Z,6.30
2018-07-23T17:16:14.612Z,6.00
2018-07-23T17:18:43.186Z,6.20
2018-07-23T17:21:11.870Z,6.90
2018-07-23T17:23:40.541Z,6.60
2018-07-23T17:26:09.233Z,6.20
2018-07-23T17:28:37.870Z,5.67
2018-07-23T17:31:06.926Z,6.30
2018-07-23T17:33:35.583Z,6.03
2018-07-23T17:36:04.476Z,6.40
2018-07-23T17:38:33.310Z,6.70
2018-07-23T17:41:01.987Z,5.60
2018-07-23T17:43:30.723Z,6.13
2018-07-23T17:45:59.488Z,6.00
2018-07-23T17:48:28.308Z,6.00
2018-07-23T17:50:56.977Z,5.27
2018-07-23T17:53:26.165Z,6.10
2018-07-23T17:55:54.876Z,6.00
2018-07-23T17:58:25.807Z,6.50
2018-07-23T18:00:56.612Z,6.30
2018-07-23T18:03:25.498Z,6.30
2018-07-23T18:05:54.148Z,5.70
2018-07-23T18:08:25.126Z,6.60
2018-07-23T18:10:53.794Z,6.30
2018-07-23T18:13:22.350Z,6.30
2018-07-23T18:15:51.098Z,6.00
2018-07-23T18:18:19.520Z,5.20
2018-07-23T18:20:48.616Z,6.60
2018-07-23T18:23:17.333Z,6.30
2018-07-23T18:25:46.222Z,6.27
2018-07-23T18:28:14.803Z,5.43
2018-07-23T18:30:43.479Z,5.83
2018-07-23T18:33:12.336Z,5.87
2018-07-23T18:35:40.931Z,6.40
2018-07-23T18:38:09.727Z,5.57
2018-07-23T18:40:38.402Z,5.50
2018-07-23T18:43:07.097Z,5.50
2018-07-23T18:45:35.843Z,5.83
2018-07-23T18:48:14.491Z,5.43
2018-07-23T18:50:43.223Z,5.80
2018-07-23T18:53:20.939Z,5.20
2018-07-23T18:55:49.694Z,5.60
2018-07-23T18:58:18.273Z,5.43
2018-07-23T19:00:46.965Z,6.07
2018-07-23T19:03:15.590Z,6.03
2018-07-23T19:05:45.376Z,5.67
2018-07-23T19:08:13.981Z,5.40
2018-07-23T19:10:42.648Z,6.30
2018-07-23T19:13:11.239Z,5.93
2018-07-23T19:15:39.779Z,5.83
2018-07-23T19:18:08.397Z,6.50
2018-07-23T19:20:37.030Z,6.30
2018-07-23T19:23:05.771Z,6.03
2018-07-23T19:25:34.396Z,6.80
2018-07-23T19:28:03.057Z,6.23
2018-07-23T19:30:31.693Z,6.07
2018-07-23T19:33:00.306Z,6.60
2018-07-23T19:35:29.017Z,6.17
2018-07-23T19:37:57.642Z,6.23
2018-07-23T19:40:26.155Z,6.17
2018-07-23T19:42:54.851Z,6.40
2018-07-23T19:45:23.526Z,6.70
2018-07-23T19:47:52.312Z,6.90
2018-07-23T19:50:21.057Z,6.93
2018-07-23T19:52:49.811Z,11.70
2018-07-23T19:55:18.702Z,7.20
2018-07-23T19:57:47.430Z,9.30
2018-07-23T20:00:16.012Z,6.90
2018-07-23T20:02:44.715Z,5.93
2018-07-23T20:05:13.559Z,7.00
2018-07-23T20:10:24.021Z,7.80
2018-07-23T20:12:52.613Z,8.20
2018-07-23T20:15:21.212Z,11.60
2018-07-23T20:17:50.207Z,7.07
2018-07-23T20:20:18.768Z,7.53
2018-07-23T20:22:47.388Z,7.00
2018-07-23T20:25:16.386Z,7.07
2018-07-23T20:27:45.051Z,6.87
2018-07-23T20:30:13.767Z,7.40
2018-07-23T20:32:42.401Z,7.13
2018-07-23T20:35:11.092Z,7.40
2018-07-23T20:37:39.757Z,7.60
2018-07-23T20:40:08.354Z,7.63
2018-07-23T20:42:36.964Z,6.37
2018-07-23T20:45:05.680Z,7.67
2018-07-23T20:47:34.356Z,8.40
2018-07-23T20:50:02.937Z,7.80
2018-07-23T20:52:31.648Z,8.40
2018-07-23T20:55:00.241Z,7.90
2018-07-23T20:57:28.820Z,8.83
2018-07-23T20:59:57.575Z,8.50
2018-07-23T21:02:26.269Z,9.10
2018-07-23T21:04:54.966Z,8.50
2018-07-23T21:07:23.612Z,8.50
2018-07-23T21:09:52.238Z,8.43
2018-07-23T21:12:20.953Z,8.17
2018-07-23T21:14:49.551Z,8.57
2018-07-23T21:17:18.225Z,8.43
2018-07-23T21:19:47.014Z,9.37
2018-07-23T21:22:15.662Z,9.17
2018-07-23T21:24:44.232Z,8.00
2018-07-23T21:27:12.851Z,8.13
2018-07-23T21:29:41.863Z,8.23
2018-07-23T21:32:10.551Z,8.13
2018-07-23T21:34:39.114Z,8.63
2018-07-23T21:37:07.691Z,9.13
2018-07-23T21:39:36.331Z,9.23
2018-07-23T21:42:04.890Z,9.53
2018-07-23T21:44:33.486Z,8.87
2018-07-23T21:47:02.112Z,9.33
2018-07-23T21:49:30.689Z,9.93
2018-07-23T21:52:01.100Z,9.53
2018-07-23T21:54:30.061Z,9.17
2018-07-23T21:56:58.635Z,9.70
2018-07-23T21:59:27.221Z,9.67
2018-07-23T22:01:55.884Z,10.23
2018-07-23T22:04:24.422Z,9.43
2018-07-23T22:06:52.966Z,10.37
2018-07-23T22:09:21.595Z,9.33
2018-07-23T22:11:50.150Z,10.03
2018-07-23T22:14:18.719Z,9.50
2018-07-23T22:16:48.946Z,9.83
2018-07-23T22:19:17.495Z,8.90
2018-07-23T22:21:46.032Z,9.60
2018-07-23T22:24:14.641Z,10.50
2018-07-23T22:26:43.213Z,10.53
2018-07-23T22:29:11.838Z,9.37
2018-07-23T22:31:40.380Z,9.97
2018-07-23T22:34:08.929Z,9.57
2018-07-23T22:36:37.458Z,9.77
2018-07-23T22:39:08.781Z,11.70
2018-07-23T22:41:37.793Z,13.00
2018-07-23T22:44:06.375Z,10.90
2018-07-23T22:46:35.061Z,10.10
2018-07-23T22:49:03.609Z,10.00
2018-07-23T22:51:32.366Z,10.50
2018-07-23T22:54:01.023Z,11.43
2018-07-23T22:56:29.635Z,10.00
2018-07-23T22:58:58.215Z,9.63
2018-07-23T23:01:26.808Z,10.90
2018-07-23T23:03:55.398Z,10.33
2018-07-23T23:06:23.963Z,10.40
2018-07-23T23:08:52.548Z,10.67
2018-07-23T23:11:21.095Z,10.70
2018-07-23T23:13:49.640Z,10.93
2018-07-23T23:16:18.143Z,9.90
2018-07-23T23:18:46.620Z,11.83
2018-07-23T23:21:15.151Z,11.50
2018-07-23T23:23:44.722Z,10.97
2018-07-23T23:26:13.357Z,12.13
2018-07-23T23:28:41.976Z,11.63
2018-07-23T23:31:10.608Z,11.83
2018-07-23T23:33:39.120Z,12.20
2018-07-23T23:36:07.771Z,11.10
2018-07-23T23:38:36.394Z,11.57
2018-07-23T23:41:05.071Z,12.70
2018-07-23T23:43:33.728Z,13.03
2018-07-23T23:46:02.445Z,13.53
2018-07-23T23:48:31.137Z,14.00
2018-07-23T23:50:59.834Z,13.20
2018-07-23T23:53:28.509Z,16.40
2018-07-23T23:55:57.244Z,15.50
2018-07-23T23:58:25.920Z,13.50
